Time;durP1;ratioP1;P1;durP2;ratioP2;P2;SDS_P1;SDS_P2;PMS_P1;PMS_P2;Temp;Humidity;BMP_temperature;BMP_pressure;BME280_temperature;BME280_humidity;BME280_pressure;Samples;Min_cycle;Max_cycle;Signal;HPM_P1;HPM_P2
2023/02/10 00:00:17;;;;;;;55.95;33.13;;;;;;;4.58;100.00;102677.34;5038548;28;20071;-70
2023/02/10 00:02:43;;;;;;;73.30;40.72;;;;;;;4.56;100.00;102680.28;5021490;28;20033;-70
2023/02/10 00:05:08;;;;;;;58.67;35.67;;;;;;;4.54;100.00;102682.41;5022048;28;20021;-70
2023/02/10 00:07:34;;;;;;;61.85;33.53;;;;;;;4.55;100.00;102678.59;5054891;28;20489;-70
2023/02/10 00:09:59;;;;;;;61.80;33.35;;;;;;;4.56;100.00;102676.69;5012122;28;20033;-70
2023/02/10 00:12:25;;;;;;;53.22;31.38;;;;;;;4.53;100.00;102668.84;5019273;28;20033;-70
2023/02/10 00:14:50;;;;;;;54.47;33.15;;;;;;;4.53;100.00;102669.69;5043306;28;20108;-70
2023/02/10 00:17:17;;;;;;;58.75;32.42;;;;;;;4.52;100.00;102681.75;5020133;28;20029;-70
2023/02/10 00:19:42;;;;;;;60.25;33.70;;;;;;;4.52;100.00;102687.25;5029453;28;20061;-70
2023/02/10 00:22:08;;;;;;;64.65;35.53;;;;;;;4.52;100.00;102679.00;5032568;28;20079;-70
2023/02/10 00:24:33;;;;;;;60.65;34.17;;;;;;;4.53;100.00;102680.69;5018231;28;20029;-70
2023/02/10 00:26:59;;;;;;;56.88;33.00;;;;;;;4.51;100.00;102681.94;5031495;28;20478;-70
2023/02/10 00:29:25;;;;;;;53.63;32.05;;;;;;;4.49;100.00;102679.41;5023667;28;20033;-70
2023/02/10 00:31:51;;;;;;;57.38;33.63;;;;;;;4.50;100.00;102680.25;5036651;28;20060;-70
2023/02/10 00:34:16;;;;;;;55.65;32.28;;;;;;;4.48;100.00;102675.81;5045110;28;20037;-70
2023/02/10 00:36:42;;;;;;;57.50;33.75;;;;;;;4.49;100.00;102673.91;5033354;28;20041;-70
2023/02/10 00:39:12;;;;;;;60.63;32.60;;;;;;;4.47;100.00;102676.00;5028185;28;20065;-70
2023/02/10 00:41:37;;;;;;;54.97;32.28;;;;;;;4.47;100.00;102673.25;5043066;28;20108;-70
2023/02/10 00:44:03;;;;;;;54.38;32.05;;;;;;;4.48;100.00;102666.69;5043994;28;20025;-70
2023/02/10 00:46:29;;;;;;;54.58;31.88;;;;;;;4.48;100.00;102669.44;5037045;28;20029;-70
2023/02/10 00:48:54;;;;;;;55.67;31.63;;;;;;;4.46;100.00;102674.31;5034163;28;20031;-70
2023/02/10 00:51:19;;;;;;;49.95;29.95;;;;;;;4.44;100.00;102665.41;5034096;28;20041;-70
2023/02/10 00:53:45;;;;;;;52.38;31.58;;;;;;;4.45;100.00;102664.34;5022109;28;20037;-70
2023/02/10 00:56:11;;;;;;;52.10;30.75;;;;;;;4.42;100.00;102660.09;5020987;28;20028;-70
2023/02/10 00:58:36;;;;;;;51.97;31.25;;;;;;;4.44;100.00;102665.41;5053994;28;20029;-70
2023/02/10 01:01:02;;;;;;;59.70;32.88;;;;;;;4.41;100.00;102663.06;5020748;28;20026;-70
2023/02/10 01:03:28;;;;;;;57.45;32.10;;;;;;;4.41;100.00;102665.81;5024228;28;20025;-70
2023/02/10 01:05:53;;;;;;;51.88;30.65;;;;;;;4.39;100.00;102656.88;5033973;28;20472;-70
2023/02/10 01:08:19;;;;;;;50.60;29.73;;;;;;;4.38;100.00;102656.03;5037336;28;20477;-70
2023/02/10 01:10:44;;;;;;;55.15;32.25;;;;;;;4.39;100.00;102662.41;5004361;28;20037;-70
2023/02/10 01:13:11;;;;;;;53.70;30.90;;;;;;;4.38;100.00;102657.94;5011213;28;20091;-70
2023/02/10 01:15:41;;;;;;;54.78;31.35;;;;;;;4.38;100.00;102663.44;5035373;28;20371;-70
2023/02/10 01:18:07;;;;;;;50.90;30.95;;;;;;;4.37;100.00;102658.97;5017427;28;20072;-70
2023/02/10 01:20:32;;;;;;;52.20;30.83;;;;;;;4.38;100.00;102655.19;5030618;28;20474;-70
2023/02/10 01:22:58;;;;;;;56.72;32.35;;;;;;;4.38;100.00;102663.44;5033912;28;20025;-70
2023/02/10 01:25:23;;;;;;;50.65;31.17;;;;;;;4.36;100.00;102657.28;5033805;28;20056;-70
2023/02/10 01:27:48;;;;;;;52.80;29.83;;;;;;;4.36;100.00;102657.28;5000889;28;20026;-70
2023/02/10 01:30:15;;;;;;;55.50;31.20;;;;;;;4.36;100.00;102658.13;5050780;28;20486;-70
2023/02/10 01:32:40;;;;;;;54.88;30.58;;;;;;;4.35;100.00;102650.94;5052146;28;20555;-70
2023/02/10 01:35:06;;;;;;;52.03;29.15;;;;;;;4.37;100.00;102658.97;5023669;28;20029;-70
2023/02/10 01:37:33;;;;;;;55.40;31.48;;;;;;;4.37;100.00;102650.72;5018912;28;20470;-70
2023/02/10 01:39:58;;;;;;;49.97;29.08;;;;;;;4.36;100.00;102657.28;5037250;28;20054;-70
2023/02/10 01:42:24;;;;;;;48.33;29.38;;;;;;;4.37;100.00;102647.97;5045098;28;20039;-70
2023/02/10 01:44:49;;;;;;;57.13;34.63;;;;;;;4.34;100.00;102654.72;5036483;28;20037;-70
2023/02/10 01:47:15;;;;;;;53.50;32.95;;;;;;;4.35;100.00;102655.59;5043517;28;20065;-70
2023/02/10 01:49:45;;;;;;;50.28;31.45;;;;;;;4.33;100.00;102653.03;5036412;28;20033;-70
2023/02/10 01:52:13;;;;;;;47.92;29.00;;;;;;;4.34;100.00;102649.22;5042655;28;20040;-70
2023/02/10 01:55:06;;;;;;;52.28;29.98;;;;;;;4.33;100.00;102652.19;5031439;28;20034;-70
2023/02/10 01:57:31;;;;;;;52.17;30.13;;;;;;;4.33;100.00;102652.19;5035337;28;20048;-70
2023/02/10 01:59:58;;;;;;;46.53;29.90;;;;;;;4.34;100.00;102649.22;5033408;28;20030;-70
2023/02/10 02:02:23;;;;;;;50.65;30.77;;;;;;;4.33;100.00;102650.28;5000621;28;20531;-70
2023/02/10 02:04:51;;;;;;;46.65;28.55;;;;;;;4.34;100.00;102651.13;5007406;28;20029;-70
2023/02/10 02:07:17;;;;;;;50.05;29.48;;;;;;;4.35;100.00;102645.44;5029086;28;20473;-70
2023/02/10 02:09:43;;;;;;;49.38;29.17;;;;;;;4.34;100.00;102638.22;5028201;28;20029;-70
2023/02/10 02:12:08;;;;;;;47.60;28.48;;;;;;;4.34;100.00;102640.13;5033307;28;20091;-70
2023/02/10 02:14:39;;;;;;;47.30;28.63;;;;;;;4.33;100.00;102635.69;5032947;28;20046;-70
2023/02/10 02:17:14;;;;;;;49.03;29.15;;;;;;;4.35;100.00;102633.59;5017815;28;20086;-70
2023/02/10 02:19:45;;;;;;;51.10;31.60;;;;;;;4.33;100.00;102641.19;5038347;28;20037;-70
2023/02/10 02:22:44;;;;;;;47.33;29.10;;;;;;;4.33;100.00;102646.69;5038208;28;20040;-70
2023/02/10 02:25:18;;;;;;;46.55;28.38;;;;;;;4.34;100.00;102635.47;5036853;28;20025;-70
2023/02/10 02:28:21;;;;;;;44.13;27.73;;;;;;;4.35;100.00;102634.44;5013118;28;20082;-70
2023/02/10 02:31:05;;;;;;;44.33;28.85;;;;;;;4.36;100.00;102635.28;5019873;28;20382;-70
2023/02/10 02:33:32;;;;;;;47.55;28.30;;;;;;;4.34;100.00;102634.63;5050054;28;20037;-70
2023/02/10 02:36:02;;;;;;;51.00;29.23;;;;;;;4.34;100.00;102643.72;5036492;28;20037;-70
2023/02/10 02:38:28;;;;;;;50.47;29.33;;;;;;;4.36;100.00;102635.28;5004404;28;20041;-70
2023/02/10 02:40:55;;;;;;;49.53;28.83;;;;;;;4.36;100.00;102635.28;5052355;28;20401;-70
2023/02/10 02:43:20;;;;;;;46.63;29.17;;;;;;;4.34;100.00;102634.63;5049844;28;20044;-70
2023/02/10 02:45:58;;;;;;;53.92;31.73;;;;;;;4.36;100.00;102638.03;5019794;28;20030;-70
2023/02/10 02:49:02;;;;;;;56.42;30.85;;;;;;;4.36;100.00;102632.53;5020229;28;20029;-70
2023/02/10 02:51:35;;;;;;;56.95;32.88;;;;;;;4.37;100.00;102640.56;5070329;28;20045;-70
2023/02/10 02:54:14;;;;;;;49.08;30.20;;;;;;;4.37;100.00;102634.22;5065130;28;20031;-70
2023/02/10 02:56:46;;;;;;;54.58;32.17;;;;;;;4.37;100.00;102639.72;5012197;28;20393;-70
2023/02/10 02:59:33;;;;;;;53.50;30.83;;;;;;;4.39;100.00;102640.38;5037907;28;20033;-70
2023/02/10 03:02:00;;;;;;;45.88;28.88;;;;;;;4.39;100.00;102634.88;5045848;28;20038;-70
2023/02/10 03:04:31;;;;;;;46.30;27.92;;;;;;;4.39;100.00;102634.88;5042477;28;20037;-70
2023/02/10 03:06:57;;;;;;;45.83;28.52;;;;;;;4.40;100.00;102642.06;5044078;28;20029;-70
2023/02/10 03:09:22;;;;;;;49.33;27.35;;;;;;;4.37;100.00;102636.97;5049236;28;20032;-70
2023/02/10 03:11:48;;;;;;;46.03;28.20;;;;;;;4.38;100.00;102633.19;5028281;28;20033;-70
2023/02/10 03:14:13;;;;;;;46.80;27.73;;;;;;;4.37;100.00;102625.97;5041647;28;20085;-70
2023/02/10 03:16:39;;;;;;;46.38;27.80;;;;;;;4.38;100.00;102628.53;5035555;28;20116;-70
2023/02/10 03:19:04;;;;;;;44.53;27.80;;;;;;;4.37;100.00;102631.47;5032884;28;20059;-70
2023/02/10 03:21:30;;;;;;;42.55;26.25;;;;;;;4.36;100.00;102629.78;5035927;28;20037;-70
2023/02/10 03:23:55;;;;;;;46.10;28.77;;;;;;;4.37;100.00;102631.47;5019869;28;20036;-70
2023/02/10 03:26:21;;;;;;;45.25;26.77;;;;;;;4.37;100.00;102628.72;5028575;28;20482;-70
2023/02/10 03:28:46;;;;;;;41.90;25.98;;;;;;;4.36;100.00;102622.38;5018363;28;20271;-70
2023/02/10 03:31:12;;;;;;;41.47;26.10;;;;;;;4.37;100.00;102632.31;5019675;28;20030;-70
2023/02/10 03:33:37;;;;;;;49.22;28.85;;;;;;;4.37;100.00;102634.22;5019091;28;20601;-70
2023/02/10 03:36:03;;;;;;;42.47;26.60;;;;;;;4.37;100.00;102631.47;5026376;28;20056;-70
2023/02/10 03:38:29;;;;;;;42.85;26.33;;;;;;;4.38;100.00;102635.94;5032389;28;20090;-70
2023/02/10 03:40:54;;;;;;;45.40;27.23;;;;;;;4.38;100.00;102635.94;5011720;28;20040;-70
2023/02/10 03:43:20;;;;;;;44.83;26.27;;;;;;;4.38;100.00;102630.44;5021833;28;20045;-70
2023/02/10 03:45:45;;;;;;;43.67;26.75;;;;;;;4.38;100.00;102619.44;5035237;28;20029;-70
2023/02/10 03:48:11;;;;;;;44.53;27.10;;;;;;;4.38;100.00;102617.53;5032171;28;20478;-70
2023/02/10 03:50:37;;;;;;;47.08;28.02;;;;;;;4.38;100.00;102627.69;5034966;28;20033;-70
2023/02/10 03:53:02;;;;;;;45.97;27.50;;;;;;;4.37;100.00;102632.31;5035069;28;20052;-70
2023/02/10 03:55:28;;;;;;;51.15;30.75;;;;;;;4.39;100.00;102632.97;5002446;28;20097;-70
2023/02/10 03:57:55;;;;;;;57.35;34.72;;;;;;;4.39;100.00;102627.47;5034190;28;20395;-70
2023/02/10 04:00:20;;;;;;;51.97;31.88;;;;;;;4.36;100.00;102629.78;5029198;28;20052;-70
2023/02/10 04:02:46;;;;;;;47.85;30.98;;;;;;;4.39;100.00;102634.88;5020840;28;20418;-70
2023/02/10 04:05:11;;;;;;;49.33;29.73;;;;;;;4.39;100.00;102637.63;5018552;28;20033;-70
2023/02/10 04:07:37;;;;;;;46.33;28.75;;;;;;;4.39;100.00;102634.88;5031599;28;20033;-70
2023/02/10 04:10:03;;;;;;;44.65;28.38;;;;;;;4.38;100.00;102645.03;5026155;28;20029;-70
2023/02/10 04:12:28;;;;;;;49.00;28.75;;;;;;;4.39;100.00;102635.72;5017236;28;20037;-70
2023/02/10 04:14:54;;;;;;;46.78;27.80;;;;;;;4.39;100.00;102632.13;5027244;28;20074;-70
2023/02/10 04:17:19;;;;;;;49.35;28.52;;;;;;;4.38;100.00;102633.19;5052072;28;20059;-70
2023/02/10 04:19:45;;;;;;;68.57;35.33;;;;;;;4.36;100.00;102630.63;5018316;28;20025;-70
2023/02/10 04:22:10;;;;;;;70.43;35.40;;;;;;;4.38;100.00;102635.94;5019020;28;20033;-70
2023/02/10 04:24:36;;;;;;;56.78;31.30;;;;;;;4.37;100.00;102636.97;5048727;28;20096;-70
2023/02/10 04:27:01;;;;;;;55.80;30.33;;;;;;;4.37;100.00;102631.47;5011048;28;20032;-70
2023/02/10 04:29:27;;;;;;;51.67;28.25;;;;;;;4.37;100.00;102636.97;5052064;28;20028;-70
2023/02/10 04:31:52;;;;;;;53.17;28.33;;;;;;;4.37;100.00;102636.97;5040717;28;20041;-71
2023/02/10 04:34:18;;;;;;;52.90;29.13;;;;;;;4.34;100.00;102631.88;5012420;28;20033;-70
2023/02/10 04:36:43;;;;;;;51.53;28.23;;;;;;;4.35;100.00;102639.09;5034325;28;20030;-70
2023/02/10 04:39:09;;;;;;;51.08;28.30;;;;;;;4.34;100.00;102642.88;5023158;28;20522;-70
2023/02/10 04:41:34;;;;;;;48.47;28.80;;;;;;;4.34;100.00;102637.38;5036517;28;20025;-70
2023/02/10 04:44:00;;;;;;;50.90;28.33;;;;;;;4.33;100.00;102646.69;5033750;28;20037;-70
2023/02/10 04:46:25;;;;;;;46.55;27.95;;;;;;;4.31;100.00;102637.78;5030603;28;20460;-70
2023/02/10 04:48:51;;;;;;;48.47;26.80;;;;;;;4.32;100.00;102639.47;5021723;28;20025;-70
2023/02/10 04:51:16;;;;;;;50.13;28.27;;;;;;;4.32;100.00;102650.47;5032530;28;20036;-70
2023/02/10 04:53:47;;;;;;;50.17;28.48;;;;;;;4.32;100.00;102645.84;5034109;28;20029;-70
2023/02/10 04:56:12;;;;;;;49.40;28.08;;;;;;;4.30;100.00;102644.34;5037758;28;20029;-70
2023/02/10 04:58:38;;;;;;;47.70;28.25;;;;;;;4.32;100.00;102655.97;5010739;28;20060;-70
2023/02/10 05:01:03;;;;;;;45.05;26.75;;;;;;;4.30;100.00;102658.09;5030286;28;20021;-70
2023/02/10 05:03:29;;;;;;;47.45;26.60;;;;;;;4.28;100.00;102662.94;5017922;28;20105;-70
2023/02/10 05:05:54;;;;;;;45.63;26.20;;;;;;;4.27;100.00;102672.25;5019881;28;20087;-70
2023/02/10 05:08:22;;;;;;;40.60;24.33;;;;;;;4.29;100.00;102667.38;5037886;28;20039;-70
2023/02/10 05:10:48;;;;;;;46.92;27.30;;;;;;;4.27;100.00;102670.34;5020106;28;20037;-70
2023/02/10 05:13:13;;;;;;;49.67;28.33;;;;;;;4.28;100.00;102676.69;5017324;28;20036;-70
2023/02/10 05:15:39;;;;;;;45.90;27.17;;;;;;;4.25;100.00;102672.44;5019131;28;20033;-70
2023/02/10 05:18:04;;;;;;;44.50;26.40;;;;;;;4.27;100.00;102678.59;5017558;28;20171;-70
2023/02/10 05:20:30;;;;;;;42.67;26.52;;;;;;;4.25;100.00;102670.53;4986629;28;20421;-70
2023/02/10 05:22:55;;;;;;;48.13;27.48;;;;;;;4.22;100.00;102668.19;5033484;28;20838;-70
2023/02/10 05:25:21;;;;;;;46.65;27.08;;;;;;;4.23;100.00;102667.16;5021700;28;20029;-70
2023/02/10 05:27:46;;;;;;;41.33;25.95;;;;;;;4.21;100.00;102669.25;5033677;28;20045;-70
2023/02/10 05:30:12;;;;;;;44.35;26.85;;;;;;;4.22;100.00;102675.59;5033358;28;20064;-70
2023/02/10 05:32:39;;;;;;;46.45;26.00;;;;;;;4.21;100.00;102674.75;5006493;28;20398;-70
2023/02/10 05:35:05;;;;;;;42.70;25.67;;;;;;;4.19;100.00;102674.09;5030532;28;20029;-70
2023/02/10 05:37:30;;;;;;;41.05;26.38;;;;;;;4.17;100.00;102670.69;5033841;28;20044;-71
2023/02/10 05:39:56;;;;;;;45.55;27.33;;;;;;;4.16;100.00;102685.50;5000532;28;20472;-70
2023/02/10 05:42:21;;;;;;;41.80;26.13;;;;;;;4.17;100.00;102678.94;5034322;28;20026;-70
2023/02/10 05:44:47;;;;;;;47.78;27.48;;;;;;;4.17;100.00;102694.59;5031873;28;20029;-70
2023/02/10 05:47:12;;;;;;;43.75;26.92;;;;;;;4.15;100.00;102685.69;5044166;28;20036;-70
2023/02/10 05:49:38;;;;;;;47.38;27.02;;;;;;;4.14;100.00;102682.06;5035904;28;20099;-70
2023/02/10 05:52:03;;;;;;;46.97;28.05;;;;;;;4.14;100.00;102684.81;5014361;28;20029;-70
2023/02/10 05:54:29;;;;;;;42.28;26.38;;;;;;;4.14;100.00;102698.56;5038034;28;20083;-70
2023/02/10 05:56:55;;;;;;;41.17;25.45;;;;;;;4.14;100.00;102692.22;5014687;28;20450;-70
2023/02/10 05:59:21;;;;;;;42.55;25.90;;;;;;;4.12;100.00;102697.91;5037145;28;20026;-70
2023/02/10 06:01:46;;;;;;;41.00;26.88;;;;;;;4.10;100.00;102701.94;5027037;28;20037;-70
2023/02/10 06:04:12;;;;;;;45.60;27.98;;;;;;;4.11;100.00;102704.47;5021031;28;20092;-70
2023/02/10 06:06:37;;;;;;;47.90;27.45;;;;;;;4.11;100.00;102706.38;5027202;28;20033;-70
2023/02/10 06:09:03;;;;;;;45.63;27.25;;;;;;;4.10;100.00;102710.19;5037065;28;20489;-70
2023/02/10 06:11:28;;;;;;;43.28;27.15;;;;;;;4.07;100.00;102711.44;5030933;28;20053;-70
2023/02/10 06:13:54;;;;;;;43.30;27.33;;;;;;;4.08;100.00;102712.28;5037809;28;20083;-70
2023/02/10 06:16:19;;;;;;;46.38;26.77;;;;;;;4.08;100.00;102704.03;5020307;28;20057;-70
2023/02/10 06:18:47;;;;;;;43.65;26.65;;;;;;;4.06;100.00;102712.47;5021039;28;20026;-70
2023/02/10 06:21:13;;;;;;;50.60;26.80;;;;;;;4.04;100.00;102703.59;5021034;28;20115;-70
2023/02/10 06:23:39;;;;;;;42.35;26.25;;;;;;;4.07;100.00;102707.81;5032518;28;20033;-70
2023/02/10 06:26:04;;;;;;;43.38;26.30;;;;;;;4.07;100.00;102707.81;5049438;28;20025;-70
2023/02/10 06:28:30;;;;;;;45.75;25.65;;;;;;;4.04;100.00;102703.59;5032863;28;20025;-70
2023/02/10 06:30:55;;;;;;;41.50;26.42;;;;;;;4.04;100.00;102709.09;5049665;28;20042;-70
2023/02/10 06:33:21;;;;;;;41.85;26.05;;;;;;;4.05;100.00;102708.03;5036832;28;20022;-70
2023/02/10 06:35:47;;;;;;;40.88;25.88;;;;;;;4.05;100.00;102710.78;5020519;28;20021;-70
2023/02/10 06:38:12;;;;;;;41.33;25.65;;;;;;;4.06;100.00;102715.22;4987718;28;20079;-70
2023/02/10 06:40:38;;;;;;;41.85;25.98;;;;;;;4.06;100.00;102717.97;5020778;28;20053;-70
2023/02/10 06:43:03;;;;;;;43.72;25.67;;;;;;;4.06;100.00;102712.47;5024317;28;20029;-70
2023/02/10 06:45:29;;;;;;;41.00;24.70;;;;;;;4.04;100.00;102711.84;5031406;28;20030;-70
2023/02/10 06:47:54;;;;;;;37.20;24.70;;;;;;;4.07;100.00;102722.44;5036522;28;20045;-70
2023/02/10 06:50:20;;;;;;;38.78;23.83;;;;;;;4.06;100.00;102717.97;5028306;28;20033;-70
2023/02/10 06:52:46;;;;;;;41.75;24.83;;;;;;;4.06;100.00;102712.47;5022887;28;20048;-70
2023/02/10 06:55:12;;;;;;;38.60;24.55;;;;;;;4.05;100.00;102713.53;5031737;28;20393;-70
2023/02/10 06:57:37;;;;;;;38.55;24.25;;;;;;;4.05;100.00;102713.53;5033125;28;20044;-70
2023/02/10 07:00:04;;;;;;;42.63;24.70;;;;;;;4.08;100.00;102720.53;5036206;28;20033;-71
2023/02/10 07:02:29;;;;;;;41.17;25.17;;;;;;;4.06;100.00;102717.97;5005283;28;20056;-70
2023/02/10 07:04:55;;;;;;;42.08;25.17;;;;;;;4.05;100.00;102719.03;5037078;28;20029;-70
2023/02/10 07:07:20;;;;;;;40.75;24.52;;;;;;;4.04;100.00;102725.59;5037945;28;20034;-70
2023/02/10 07:09:46;;;;;;;39.83;24.90;;;;;;;4.04;100.00;102731.09;5030864;28;20040;-70
2023/02/10 07:12:11;;;;;;;42.58;25.52;;;;;;;4.03;100.00;102729.34;5002910;28;20116;-70
2023/02/10 07:14:38;;;;;;;43.72;26.35;;;;;;;4.07;100.00;102724.31;5022973;28;20033;-73
2023/02/10 07:17:03;;;;;;;39.47;25.00;;;;;;;4.03;100.00;102723.84;5018992;28;20083;-70
2023/02/10 07:19:30;;;;;;;43.72;25.92;;;;;;;4.05;100.00;102723.69;4999796;28;20026;-70
2023/02/10 07:21:56;;;;;;;44.08;27.15;;;;;;;4.05;100.00;102731.94;5050220;28;20025;-71
2023/02/10 07:24:21;;;;;;;40.78;25.52;;;;;;;4.06;100.00;102734.47;5023380;28;20071;-71
2023/02/10 07:26:47;;;;;;;41.60;24.90;;;;;;;4.05;100.00;102731.94;5021839;28;20033;-70
2023/02/10 07:29:12;;;;;;;39.65;25.13;;;;;;;4.05;100.00;102732.78;5023458;28;20471;-70
2023/02/10 07:31:38;;;;;;;39.22;24.88;;;;;;;4.07;100.00;102729.81;5021176;28;20115;-70
2023/02/10 07:34:03;;;;;;;44.03;26.42;;;;;;;4.06;100.00;102737.22;5019228;28;20041;-71
2023/02/10 07:36:29;;;;;;;40.63;26.27;;;;;;;4.07;100.00;102736.19;5037545;28;20393;-70
2023/02/10 07:38:54;;;;;;;43.05;25.35;;;;;;;4.07;100.00;102744.44;5031265;28;20084;-70
2023/02/10 07:41:20;;;;;;;42.47;26.33;;;;;;;4.07;100.00;102744.44;5039314;28;20056;-70
2023/02/10 07:43:45;;;;;;;45.65;25.95;;;;;;;4.08;100.00;102745.28;5019149;28;20029;-70
2023/02/10 07:46:11;;;;;;;42.30;25.83;;;;;;;4.07;100.00;102741.69;5015340;28;20021;-70
2023/02/10 07:48:36;;;;;;;42.90;25.83;;;;;;;4.08;100.00;102745.28;5018760;28;20028;-70
2023/02/10 07:51:02;;;;;;;45.13;26.63;;;;;;;4.08;100.00;102748.03;5048546;28;20052;-70
2023/02/10 07:53:27;;;;;;;44.72;26.42;;;;;;;4.11;100.00;102753.97;5044205;28;20067;-70
2023/02/10 07:55:53;;;;;;;46.50;27.10;;;;;;;4.11;100.00;102759.47;5024302;28;20052;-70
2023/02/10 07:58:18;;;;;;;44.92;26.38;;;;;;;4.12;100.00;102755.66;5018823;28;20030;-70
2023/02/10 08:00:44;;;;;;;42.40;26.65;;;;;;;4.13;100.00;102762.91;5018035;28;20029;-71
2023/02/10 08:03:13;;;;;;;43.35;26.17;;;;;;;4.14;100.00;102761.00;5018739;28;20031;-71
2023/02/10 08:05:39;;;;;;;44.65;26.98;;;;;;;4.15;100.00;102765.44;5035030;28;20044;-71
2023/02/10 08:08:04;;;;;;;45.38;26.45;;;;;;;4.17;100.00;102780.69;5023772;28;20104;-70
2023/02/10 08:10:30;;;;;;;41.80;25.92;;;;;;;4.19;100.00;102773.09;5031842;28;20040;-71
2023/02/10 08:12:55;;;;;;;42.22;25.38;;;;;;;4.19;100.00;102767.59;5024385;28;20037;-70
2023/02/10 08:15:22;;;;;;;44.30;27.42;;;;;;;4.20;100.00;102772.03;5030876;28;20090;-70
2023/02/10 08:17:48;;;;;;;42.13;26.35;;;;;;;4.22;100.00;102774.63;5031905;28;20033;-71
2023/02/10 08:20:13;;;;;;;39.25;25.85;;;;;;;4.22;100.00;102783.72;5031538;28;20021;-70
2023/02/10 08:22:39;;;;;;;49.50;27.27;;;;;;;4.24;100.00;102783.53;5018302;28;20062;-70
2023/02/10 08:25:04;;;;;;;48.22;27.30;;;;;;;4.27;100.00;102785.03;5061352;28;20427;-70
2023/02/10 08:27:30;;;;;;;46.28;25.73;;;;;;;4.31;100.00;102786.34;5038035;28;20021;-70
2023/02/10 08:29:55;;;;;;;40.72;26.13;;;;;;;4.31;100.00;102791.84;5034412;28;20394;-70
2023/02/10 08:32:22;;;;;;;42.80;26.50;;;;;;;4.33;100.00;102789.75;5014860;28;20061;-70
2023/02/10 08:34:47;;;;;;;43.72;26.80;;;;;;;4.36;100.00;102792.09;5031471;28;20033;-70
2023/02/10 08:37:13;;;;;;;43.38;27.38;;;;;;;4.40;100.00;102798.91;5017819;28;20160;-70
2023/02/10 08:39:39;;;;;;;44.03;26.08;;;;;;;4.43;100.00;102795.75;5043308;28;20045;-70
2023/02/10 08:42:04;;;;;;;42.95;26.65;;;;;;;4.49;100.00;102794.97;5016904;28;20036;-70
2023/02/10 08:44:30;;;;;;;45.28;26.70;;;;;;;4.51;100.00;102792.00;5033428;28;20048;-71
2023/02/10 08:46:55;;;;;;;44.67;25.85;;;;;;;4.54;100.00;102800.75;5014401;28;20034;-70
2023/02/10 08:49:24;;;;;;;41.10;25.42;;;;;;;4.59;100.00;102794.63;5037961;28;20026;-70
2023/02/10 08:51:53;;;;;;;42.33;25.60;;;;;;;4.63;100.00;102801.47;5034178;28;20032;-70
2023/02/10 08:54:18;;;;;;;38.22;24.63;;;;;;;4.67;100.00;102802.75;5034397;28;20072;-70
2023/02/10 08:56:44;;;;;;;41.03;26.13;;;;;;;4.74;100.00;102800.06;5026782;28;20097;-70
2023/02/10 08:59:10;;;;;;;43.22;24.92;;;;;;;4.77;100.00;102800.50;5017500;28;20025;-70
2023/02/10 09:01:35;;;;;;;46.92;28.13;;;;;;;4.82;100.00;102800.78;5020993;28;20034;-70
2023/02/10 09:04:01;;;;;;;40.17;26.45;;;;;;;4.90;100.00;102808.00;5014442;28;20036;-70
2023/02/10 09:06:39;;;;;;;46.83;27.13;;;;;;;4.93;100.00;102800.22;5035298;28;20091;-70
2023/02/10 09:09:08;;;;;;;48.40;28.70;;;;;;;5.03;100.00;102805.34;5056265;28;20056;-70
2023/02/10 09:11:33;;;;;;;49.00;28.05;;;;;;;5.09;100.00;102803.69;5064335;28;20036;-70
2023/02/10 09:13:59;;;;;;;41.53;26.27;;;;;;;5.15;100.00;102808.41;5043531;28;20474;-70
2023/02/10 09:16:24;;;;;;;41.50;23.52;;;;;;;5.23;100.00;102810.16;5059076;28;20036;-70
2023/02/10 09:18:50;;;;;;;40.17;24.30;;;;;;;5.28;100.00;102821.41;5033407;28;20056;-71
2023/02/10 09:21:16;;;;;;;43.75;26.65;;;;;;;5.36;100.00;102813.00;5005721;28;20363;-70
2023/02/10 09:23:41;;;;;;;40.65;25.05;;;;;;;5.43;100.00;102813.88;5013805;28;20025;-71
2023/02/10 09:26:07;;;;;;;41.45;25.83;;;;;;;5.48;100.00;102816.88;5043312;28;20025;-70
2023/02/10 09:28:32;;;;;;;44.38;26.45;;;;;;;5.56;100.00;102821.38;5021963;28;20026;-71
2023/02/10 09:30:58;;;;;;;37.63;23.25;;;;;;;5.60;100.00;102809.72;5033493;28;20512;-70
2023/02/10 09:33:23;;;;;;;38.50;23.40;;;;;;;5.69;100.00;102809.56;5035164;28;20033;-70
2023/02/10 09:35:49;;;;;;;37.95;23.92;;;;;;;5.77;100.00;102814.91;5028817;28;20040;-70
2023/02/10 09:38:15;;;;;;;36.80;21.92;;;;;;;5.81;100.00;102819.78;5018905;28;20056;-70
2023/02/10 09:41:08;;;;;;;40.67;25.67;;;;;;;5.91;100.00;102802.84;5038794;28;20045;-70
2023/02/10 09:43:46;;;;;;;35.47;24.08;;;;;;;6.00;100.00;102803.56;5022406;28;20510;-70
2023/02/10 09:46:40;;;;;;;42.08;23.98;;;;;;;6.13;100.00;102805.47;5033236;28;20071;-71
2023/02/10 09:49:20;;;;;;;40.15;23.67;;;;;;;6.24;100.00;102810.38;5033511;28;20375;-70
2023/02/10 09:52:15;;;;;;;37.65;23.73;;;;;;;6.35;100.00;102809.81;5041698;28;20389;-71
2023/02/10 09:54:42;;;;;;;37.80;23.65;;;;;;;6.53;100.00;102808.31;5049922;28;20036;-70
2023/02/10 09:57:24;;;;;;;41.03;22.15;;;;;;;6.65;100.00;102812.16;5036994;28;20564;-71
2023/02/10 09:59:50;;;;;;;36.80;23.20;;;;;;;6.81;100.00;102814.50;5024492;28;20032;-71
2023/02/10 10:02:50;;;;;;;35.45;23.08;;;;;;;6.96;100.00;102807.88;5000901;28;20041;-71
2023/02/10 10:05:36;;;;;;;39.88;23.10;;;;;;;7.17;100.00;102810.44;5043810;28;20428;-71
2023/02/10 10:08:02;;;;;;;39.83;24.60;;;;;;;7.34;100.00;102811.66;5016962;28;20076;-71
2023/02/10 10:10:32;;;;;;;37.03;24.17;;;;;;;7.51;100.00;102813.94;5035530;28;20029;-71
2023/02/10 10:12:57;;;;;;;33.60;22.65;;;;;;;7.65;100.00;102810.06;5035413;28;20504;-71
2023/02/10 10:15:23;;;;;;;36.80;22.90;;;;;;;7.79;100.00;102814.47;5016728;28;20097;-71
2023/02/10 10:17:48;;;;;;;35.10;22.35;;;;;;;7.91;100.00;102816.56;5000306;28;20025;-71
2023/02/10 10:20:20;;;;;;;36.60;23.35;;;;;;;8.04;100.00;102811.81;5057831;28;20053;-71
2023/02/10 10:22:51;;;;;;;38.25;23.30;;;;;;;8.16;100.00;102820.28;5062662;28;20104;-71
2023/02/10 10:25:36;;;;;;;40.65;25.58;;;;;;;8.27;100.00;102816.81;5037914;28;20044;-71
2023/02/10 10:28:19;;;;;;;36.38;24.13;;;;;;;8.41;100.00;102816.72;5034495;28;20029;-71
2023/02/10 10:30:53;;;;;;;33.33;21.40;;;;;;;8.49;100.00;102814.53;5016234;28;20033;-71
2023/02/10 10:33:33;;;;;;;38.92;25.70;;;;;;;8.60;100.00;102818.50;5014521;28;20044;-71
2023/02/10 10:36:01;;;;;;;35.30;22.83;;;;;;;8.70;100.00;102816.09;5033148;28;20112;-71
2023/02/10 10:38:31;;;;;;;33.55;23.27;;;;;;;8.79;100.00;102824.13;5033596;28;20044;-71
2023/02/10 10:41:00;;;;;;;32.28;21.80;;;;;;;8.86;100.00;102820.25;5024174;28;20046;-71
2023/02/10 10:43:32;;;;;;;33.28;21.00;;;;;;;8.94;100.00;102821.84;5012258;28;20433;-71
2023/02/10 10:46:02;;;;;;;37.63;23.10;;;;;;;9.04;100.00;102824.13;5036294;28;20029;-75
2023/02/10 10:48:27;;;;;;;37.60;24.10;;;;;;;9.11;100.00;102828.53;5016985;28;20025;-71
2023/02/10 10:50:54;;;;;;;34.55;21.30;;;;;;;9.19;100.00;102830.16;5033203;28;20538;-71
2023/02/10 10:53:35;;;;;;;39.80;20.92;;;;;;;9.26;100.00;102830.09;5010699;28;20041;-71
2023/02/10 10:56:02;;;;;;;40.22;24.25;;;;;;;9.33;100.00;102828.09;5020686;28;20205;-71
2023/02/10 10:58:30;;;;;;;36.70;24.17;;;;;;;9.39;100.00;102835.50;5013559;28;20032;-71
2023/02/10 11:00:58;;;;;;;33.90;20.73;;;;;;;9.43;100.00;102822.03;5005910;28;20108;-71
2023/02/10 11:03:23;;;;;;;36.10;22.40;;;;;;;9.49;100.00;102830.25;5003782;28;20398;-71
2023/02/10 11:06:07;;;;;;;33.03;21.42;;;;;;;9.55;100.00;102826.56;5037250;28;20032;-71
2023/02/10 11:08:52;;;;;;;33.25;20.00;;;;;;;9.62;100.00;102838.44;5037458;28;20034;-71
2023/02/10 11:11:17;;;;;;;35.78;22.67;;;;;;;9.70;100.00;102830.91;5026167;28;20033;-71